Time;durP1;ratioP1;P1;durP2;ratioP2;P2;SDS_P1;SDS_P2;PMS_P1;PMS_P2;Temp;Humidity;BMP_temperature;BMP_pressure;BME280_temperature;BME280_humidity;BME280_pressure;Samples;Min_cycle;Max_cycle;Signal;HPM_P1;HPM_P2
2021/11/12 00:13:23;;;;;;;;;27.25;24.25;;;;;15.63;48.72;99171.56;4803300;29;109209;-89
2021/11/12 00:15:52;;;;;;;;;30.75;26.00;;;;;15.62;48.31;99168.00;4816039;29;102560;-89
2021/11/12 00:18:22;;;;;;;;;27.00;22.25;;;;;15.60;48.30;99172.84;4825278;29;102212;-89
2021/11/12 00:20:49;;;;;;;;;27.50;23.00;;;;;15.60;48.16;99169.28;4799741;29;102552;-82
2021/11/12 00:23:16;;;;;;;;;27.25;22.00;;;;;15.59;48.66;99168.44;4817590;28;104376;-82
2021/11/12 00:25:45;;;;;;;;;26.00;22.00;;;;;15.58;48.54;99166.78;4819395;28;102700;-88
2021/11/12 00:28:13;;;;;;;;;31.00;25.00;;;;;15.59;48.24;99176.63;4807222;29;103594;-82
2021/11/12 00:38:34;;;;;;;;;29.50;23.00;;;;;15.57;48.31;99162.41;4777264;28;102354;-81
2021/11/12 00:41:22;;;;;;;;;25.50;22.75;;;;;15.57;48.39;99165.13;4816288;29;106046;-88
2021/11/12 00:43:53;;;;;;;;;32.50;25.00;;;;;15.56;48.15;99168.06;4819933;29;109140;-89
2021/11/12 00:46:39;;;;;;;;;28.50;23.00;;;;;15.55;48.53;99169.09;4800882;29;102459;-88
2021/11/12 00:49:13;;;;;;;;;28.75;24.00;;;;;15.55;48.56;99164.50;4800536;29;103390;-89
2021/11/12 00:51:44;;;;;;;;;25.00;21.50;;;;;15.54;48.69;99161.97;4823660;29;102187;-89
2021/11/12 00:54:15;;;;;;;;;24.25;20.50;;;;;15.52;48.75;99167.66;4827642;28;108890;-89
2021/11/12 00:56:42;;;;;;;;;35.00;25.25;;;;;15.49;48.58;99157.16;4802841;29;104210;-81
2021/11/12 00:59:09;;;;;;;;;25.25;22.00;;;;;15.50;48.20;99163.44;4790719;28;102415;-89
2021/11/12 01:01:39;;;;;;;;;28.50;23.25;;;;;15.49;48.60;99162.59;4821587;29;102622;-89
2021/11/12 01:04:09;;;;;;;;;29.25;21.75;;;;;15.49;48.33;99159.06;4803361;28;104245;-89
2021/11/12 01:06:36;;;;;;;;;25.25;20.25;;;;;15.49;48.82;99164.53;4811745;29;102439;-88
2021/11/12 01:09:05;;;;;;;;;24.25;23.50;;;;;15.49;48.33;99164.53;4800504;29;102570;-82
2021/11/12 01:11:35;;;;;;;;;23.00;22.00;;;;;15.49;48.32;99159.06;4815775;29;102393;-82
2021/11/12 01:14:03;;;;;;;;;27.75;24.00;;;;;15.47;47.97;99167.47;4802811;29;104214;-82
2021/11/12 01:16:31;;;;;;;;;23.50;21.75;;;;;15.48;48.12;99162.84;4819926;29;103699;-82
2021/11/12 01:18:58;;;;;;;;;28.00;24.25;;;;;15.48;48.70;99165.56;4789538;29;104262;-82
2021/11/12 01:21:25;;;;;;;;;31.75;26.50;;;;;15.48;48.06;99168.28;4820536;28;102262;-89
2021/11/12 01:23:53;;;;;;;;;25.50;24.75;;;;;15.47;48.50;99166.63;4816765;29;104169;-87
2021/11/12 01:26:21;;;;;;;;;29.00;25.75;;;;;15.46;48.10;99154.03;4794296;29;102484;-89
2021/11/12 01:28:48;;;;;;;;;25.25;20.25;;;;;15.46;48.03;99151.31;4776320;29;104403;-82
2021/11/12 01:31:16;;;;;;;;;26.75;22.50;;;;;15.46;48.19;99167.66;4790432;29;103390;-88
2021/11/12 01:33:43;;;;;;;;;26.75;21.75;;;;;15.45;47.95;99163.25;4824567;29;103981;-89
2021/11/12 01:36:25;;;;;;;;;26.50;23.25;;;;;15.44;48.34;99157.00;4805698;29;102758;-89
2021/11/12 01:38:56;;;;;;;;;27.00;22.75;;;;;15.43;48.20;99165.38;4819375;29;102255;-88
2021/11/12 01:41:24;;;;;;;;;23.25;22.25;;;;;15.42;48.11;99170.00;4807423;29;105363;-87
2021/11/12 01:43:54;;;;;;;;;31.25;22.50;;;;;15.42;48.36;99169.16;4804052;29;104037;-88
2021/11/12 01:46:37;;;;;;;;;26.25;23.25;;;;;15.42;48.25;99170.00;4807630;28;102856;-89
2021/11/12 01:56:34;;;;;;;;;25.00;24.00;;;;;15.38;47.92;99159.75;4825048;29;102570;-88
2021/11/12 02:01:38;;;;;;;;;21.50;20.75;;;;;15.39;48.00;99164.16;4773600;29;103675;-89
2021/11/12 02:04:09;;;;;;;;;25.00;21.75;;;;;15.38;48.32;99148.84;4737445;29;105414;-89
2021/11/12 02:06:37;;;;;;;;;28.50;22.00;;;;;15.35;47.96;99149.28;4707925;29;103957;-88
2021/11/12 02:09:20;;;;;;;;;20.75;19.25;;;;;15.38;48.26;99148.84;4774866;29;102509;-85
2021/11/12 02:11:54;;;;;;;;;26.00;22.25;;;;;15.36;48.29;99154.50;4812118;28;102741;-88
2021/11/12 02:14:22;;;;;;;;;27.50;21.00;;;;;15.36;47.91;99150.94;4789996;29;104271;-88
2021/11/12 02:17:07;;;;;;;;;26.00;20.75;;;;;15.37;48.37;99149.91;4794863;29;102509;-89
2021/11/12 02:19:37;;;;;;;;;28.00;22.00;;;;;15.35;47.85;99146.56;4764087;29;103560;-89
2021/11/12 02:22:11;;;;;;;;;24.75;21.00;;;;;15.34;48.08;99148.47;4788138;29;104933;-82
2021/11/12 02:24:51;;;;;;;;;25.25;21.75;;;;;15.33;47.82;99152.22;4806009;29;104420;-82
2021/11/12 02:27:20;;;;;;;;;21.50;18.50;;;;;15.32;48.04;99152.44;4792484;29;102257;-82
2021/11/12 02:29:54;;;;;;;;;24.50;22.00;;;;;15.32;48.19;99141.53;4788483;29;103424;-81
2021/11/12 02:32:23;;;;;;;;;26.50;20.50;;;;;15.32;48.30;99136.94;4820961;29;102414;-89
2021/11/12 02:34:51;;;;;;;;;24.75;22.50;;;;;15.32;47.78;99136.09;4789748;29;105167;-89
2021/11/12 02:37:20;;;;;;;;;30.00;22.25;;;;;15.29;48.10;99133.81;4822521;28;102396;-82
2021/11/12 02:39:47;;;;;;;;;24.25;21.50;;;;;15.31;47.98;99140.69;4786550;29;102525;-88
2021/11/12 02:42:14;;;;;;;;;21.50;19.00;;;;;15.31;48.08;99139.91;4806161;29;102187;-88
2021/11/12 02:44:42;;;;;;;;;21.50;19.75;;;;;15.31;48.17;99140.69;4809008;29;108721;-89
2021/11/12 02:47:12;;;;;;;;;23.25;19.25;;;;;15.31;48.27;99135.25;4811895;29;102528;-81
2021/11/12 02:49:39;;;;;;;;;22.50;21.25;;;;;15.30;48.16;99144.50;4801087;29;104099;-82
2021/11/12 02:52:08;;;;;;;;;20.75;19.00;;;;;15.30;48.29;99140.94;4796680;28;102505;-82
2021/11/12 02:54:38;;;;;;;;;25.00;21.75;;;;;15.29;48.14;99131.09;4800972;29;104267;-82
2021/11/12 02:57:06;;;;;;;;;20.50;19.00;;;;;15.29;47.43;99137.38;4803145;29;102965;-88
2021/11/12 02:59:33;;;;;;;;;20.75;18.00;;;;;15.28;48.08;99132.13;4805998;29;102699;-89
2021/11/12 03:02:05;;;;;;;;;24.00;20.00;;;;;15.26;48.27;99132.38;4804543;29;102615;-88
2021/11/12 03:04:32;;;;;;;;;23.25;21.00;;;;;15.26;48.16;99124.19;4808035;29;104111;-89
2021/11/12 03:07:00;;;;;;;;;25.25;22.00;;;;;15.25;48.09;99127.97;4810027;29;102318;-89
2021/11/12 03:09:27;;;;;;;;;15.50;13.50;;;;;15.26;47.92;99120.63;4805426;29;102560;-89
2021/11/12 03:11:56;;;;;;;;;24.00;20.25;;;;;15.26;48.04;99126.09;4764135;29;102512;-89
2021/11/12 03:14:23;;;;;;;;;19.50;18.50;;;;;15.25;47.88;99117.06;4786269;29;104330;-89
2021/11/12 03:16:50;;;;;;;;;27.50;21.00;;;;;15.26;48.25;99126.09;4807112;29;103508;-89
2021/11/12 03:19:19;;;;;;;;;23.00;19.75;;;;;15.24;48.19;99128.19;4798705;29;102569;-82
2021/11/12 03:21:46;;;;;;;;;22.75;20.50;;;;;15.24;47.90;99134.47;4770774;29;102246;-89
2021/11/12 04:02:37;;;;;;;;;21.25;20.00;;;;;15.18;47.74;99138.88;4776249;29;102714;-89
2021/11/12 04:17:10;;;;;;;;;22.25;19.25;;;;;15.19;47.85;99132.41;4788475;29;104097;-89
2021/11/12 05:10:57;;;;;;;;;25.25;20.75;;;;;15.12;48.12;99158.00;4827834;28;102636;-89
2021/11/12 05:13:45;;;;;;;;;21.25;19.50;;;;;15.12;47.53;99155.28;4826530;28;108870;-89
2021/11/12 05:43:49;;;;;;;;;19.00;17.25;;;;;15.06;47.83;99165.16;4813504;28;102554;-81
2021/11/12 05:46:21;;;;;;;;;18.50;16.00;;;;;15.06;47.66;99170.59;4781367;29;108650;-89
2021/11/12 05:57:28;;;;;;;;;18.00;17.25;;;;;15.02;47.88;99177.53;4743411;28;108263;-81
2021/11/12 05:59:56;;;;;;;;;20.50;18.50;;;;;15.06;48.08;99186.09;4744392;28;102237;-81
2021/11/12 06:02:24;;;;;;;;;18.75;17.50;;;;;15.06;47.91;99184.22;4723135;29;102413;-81
2021/11/12 06:04:53;;;;;;;;;18.00;17.00;;;;;15.04;47.59;99189.03;4705988;28;102687;-80
2021/11/12 06:07:22;;;;;;;;;19.00;17.50;;;;;15.05;47.30;99184.41;4774752;29;105714;-88
2021/11/12 06:09:50;;;;;;;;;17.25;16.50;;;;;15.01;48.16;99180.44;4778695;28;102688;-89
2021/11/12 06:12:17;;;;;;;;;19.00;16.00;;;;;15.05;47.62;99196.16;4804000;29;102951;-89
2021/11/12 06:14:44;;;;;;;;;16.50;14.75;;;;;15.05;47.71;99190.69;4833735;28;102311;-81
2021/11/12 06:17:11;;;;;;;;;18.50;17.00;;;;;15.06;47.82;99202.44;4826977;28;103823;-82
2021/11/12 06:19:38;;;;;;;;;22.75;17.75;;;;;15.05;47.54;99195.31;4804448;28;102617;-89
2021/11/12 06:22:06;;;;;;;;;17.25;16.25;;;;;15.05;47.14;99196.16;4797416;28;102696;-89
2021/11/12 06:24:33;;;;;;;;;19.50;16.00;;;;;15.03;47.76;99197.44;4829880;28;102187;-88
2021/11/12 06:27:00;;;;;;;;;20.00;19.25;;;;;15.02;47.55;99193.88;4810867;29;104059;-89
2021/11/12 06:29:30;;;;;;;;;20.75;16.50;;;;;15.03;47.70;99203.72;4830129;28;103384;-88
2021/11/12 06:31:57;;;;;;;;;18.75;14.75;;;;;15.03;47.59;99198.28;4829457;28;102250;-82
2021/11/12 06:34:24;;;;;;;;;17.50;14.50;;;;;15.03;47.87;99198.28;4825639;28;103338;-82
2021/11/12 06:36:51;;;;;;;;;22.25;18.25;;;;;15.03;47.52;99206.44;4809753;28;104077;-88
2021/11/12 06:39:19;;;;;;;;;16.50;16.50;;;;;15.03;47.80;99205.59;4808364;29;102225;-89
2021/11/12 06:49:36;;;;;;;;;19.75;18.25;;;;;15.01;47.43;99205.81;4807704;29;102617;-82
2021/11/12 06:52:04;;;;;;;;;21.25;17.00;;;;;14.99;47.69;99202.47;4812484;28;102458;-82
2021/11/12 06:54:31;;;;;;;;;16.00;15.00;;;;;15.01;47.31;99205.81;4789132;29;102728;-82
2021/11/12 06:56:58;;;;;;;;;16.00;15.75;;;;;14.99;47.63;99191.59;4829413;28;104124;-88
2021/11/12 06:59:25;;;;;;;;;16.75;14.50;;;;;15.00;47.44;99201.41;4795174;29;102578;-89
2021/11/12 07:01:53;;;;;;;;;20.00;18.00;;;;;15.00;47.86;99203.28;4814755;28;102565;-88
2021/11/12 07:04:21;;;;;;;;;18.75;16.75;;;;;15.00;47.44;99195.97;4810389;29;102199;-87
2021/11/12 07:06:48;;;;;;;;;19.00;17.00;;;;;14.98;47.56;99189.91;4814549;29;104083;-89
2021/11/12 07:09:15;;;;;;;;;22.00;16.00;;;;;15.00;47.79;99206.84;4791126;29;102715;-88
2021/11/12 07:11:42;;;;;;;;;16.75;15.50;;;;;15.00;47.51;99198.69;4789830;29;102887;-89
2021/11/12 07:14:09;;;;;;;;;20.25;17.00;;;;;15.00;47.76;99195.97;4780396;29;104714;-89
2021/11/12 07:16:36;;;;;;;;;17.75;15.50;;;;;15.01;47.79;99197.63;4796541;29;104075;-88
2021/11/12 07:19:04;;;;;;;;;20.00;16.25;;;;;15.01;47.31;99192.19;4814928;29;102372;-88
2021/11/12 07:21:31;;;;;;;;;26.25;17.00;;;;;15.03;47.59;99203.72;4780204;29;102604;-89
2021/11/12 07:23:59;;;;;;;;;19.75;17.50;;;;;15.02;47.64;99207.47;4791326;29;102760;-82
2021/11/12 07:26:26;;;;;;;;;19.00;18.25;;;;;15.01;47.55;99207.69;4801665;29;104243;-81
2021/11/12 07:28:53;;;;;;;;;20.00;17.00;;;;;15.05;47.36;99207.03;4786985;29;102628;-82
2021/11/12 07:31:41;;;;;;;;;16.75;15.00;;;;;15.06;47.27;99214.16;4795988;29;102658;-89
2021/11/12 07:34:08;;;;;;;;;20.75;17.00;;;;;15.10;47.52;99209.13;4770119;29;102724;-82
2021/11/12 07:36:41;;;;;;;;;22.00;19.00;;;;;15.12;47.48;99205.16;4788682;29;104500;-82
2021/11/12 07:39:25;;;;;;;;;21.25;17.00;;;;;15.15;47.49;99212.88;4783789;29;102126;-88
2021/11/12 07:49:43;;;;;;;;;16.75;15.00;;;;;15.26;47.25;99200.47;4804249;29;103458;-88
2021/11/12 07:52:11;;;;;;;;;20.00;16.75;;;;;15.29;47.17;99197.31;4794064;29;102502;-89
2021/11/12 07:54:39;;;;;;;;;21.00;18.25;;;;;15.30;47.47;99195.44;4808909;29;102197;-88
2021/11/12 07:57:07;;;;;;;;;19.75;17.00;;;;;15.29;47.27;99186.41;4785641;29;104133;-88
2021/11/12 07:59:35;;;;;;;;;21.25;18.50;;;;;15.33;47.26;99198.56;4771423;29;102437;-89
2021/11/12 08:02:03;;;;;;;;;19.50;16.25;;;;;15.34;47.29;99194.78;4802435;29;102531;-89
2021/11/12 08:04:30;;;;;;;;;20.00;19.00;;;;;15.35;47.12;99190.16;4802169;29;111671;-89
2021/11/12 08:07:00;;;;;;;;;18.00;16.25;;;;;15.36;47.23;99184.47;4813001;29;104052;-89
2021/11/12 08:09:32;;;;;;;;;17.50;16.50;;;;;15.38;47.44;99195.19;4806644;29;102783;-89
2021/11/12 08:12:04;;;;;;;;;22.75;19.75;;;;;15.39;46.97;99188.69;4819035;29;102208;-89
2021/11/12 08:14:54;;;;;;;;;21.00;16.75;;;;;15.40;47.24;99187.63;4809165;29;102478;-89
2021/11/12 08:19:49;;;;;;;;;18.25;17.00;;;;;15.43;47.29;99179.84;4804090;29;102720;-86
2021/11/12 08:22:24;;;;;;;;;19.50;16.00;;;;;15.45;46.85;99182.34;4785826;29;102722;-89
2021/11/12 08:25:07;;;;;;;;;21.75;16.50;;;;;15.46;47.17;99186.75;4801295;29;102370;-84
2021/11/12 08:30:32;;;;;;;;;24.00;16.75;;;;;15.46;47.10;99178.56;4815637;28;102679;-89
2021/11/12 08:36:13;;;;;;;;;16.50;14.75;;;;;15.46;47.24;99173.94;4821742;29;102638;-82
2021/11/12 08:38:53;;;;;;;;;17.00;15.25;;;;;15.45;47.57;99169.56;4788738;29;104114;-82
2021/11/12 08:41:28;;;;;;;;;17.50;15.75;;;;;15.48;47.11;99173.75;4788991;29;102560;-89
2021/11/12 08:44:04;;;;;;;;;20.50;19.25;;;;;15.49;46.86;99183.59;4811980;29;102215;-82
2021/11/12 08:49:23;;;;;;;;;17.75;17.00;;;;;15.49;46.86;99180.88;4825275;29;108946;-89
2021/11/12 08:51:51;;;;;;;;;21.00;17.75;;;;;15.49;47.25;99186.31;4785674;29;102513;-82
2021/11/12 08:54:24;;;;;;;;;20.00;18.50;;;;;15.48;46.81;99180.03;4800380;29;102796;-82
2021/11/12 08:56:52;;;;;;;;;17.00;16.50;;;;;15.48;46.67;99168.28;4803339;29;103816;-88
2021/11/12 08:59:20;;;;;;;;;17.50;15.25;;;;;15.48;46.74;99168.28;4807644;29;104105;-82
2021/11/12 09:01:52;;;;;;;;;19.00;17.50;;;;;15.48;47.11;99171.03;4811154;29;102375;-87
2021/11/12 09:04:20;;;;;;;;;18.75;18.25;;;;;15.47;46.98;99162.00;4792888;29;102348;-88
2021/11/12 09:06:47;;;;;;;;;17.00;16.00;;;;;15.48;46.82;99165.56;4825252;29;103246;-89
2021/11/12 09:09:14;;;;;;;;;15.50;14.00;;;;;15.49;47.11;99153.63;4799343;29;104013;-82
2021/11/12 09:11:41;;;;;;;;;16.00;14.00;;;;;15.49;47.24;99145.44;4823192;29;105098;-89
2021/11/12 09:14:14;;;;;;;;;21.00;19.50;;;;;15.49;46.96;99154.44;4813117;28;102455;-89
2021/11/12 09:16:44;;;;;;;;;21.50;17.00;;;;;15.49;47.15;99159.88;4809258;28;103537;-90
2021/11/12 09:19:13;;;;;;;;;17.25;16.00;;;;;15.49;47.02;99154.44;4823756;29;104403;-89
2021/11/12 09:21:45;;;;;;;;;17.75;15.00;;;;;15.50;46.97;99149.81;4790841;29;104580;-89
2021/11/12 09:24:12;;;;;;;;;19.75;14.50;;;;;15.49;46.63;99148.16;4790493;29;103086;-89
2021/11/12 09:26:39;;;;;;;;;17.50;15.00;;;;;15.48;46.74;99135.59;4803902;29;102680;-89
2021/11/12 09:29:10;;;;;;;;;17.00;16.00;;;;;15.48;47.27;99141.03;4794115;29;104580;-88
2021/11/12 09:31:38;;;;;;;;;17.00;17.00;;;;;15.49;46.86;99148.16;4784453;29;102351;-89
2021/11/12 09:34:07;;;;;;;;;18.50;16.50;;;;;15.46;47.09;99133.06;4824626;29;102105;-82
2021/11/12 09:36:34;;;;;;;;;17.25;15.25;;;;;15.46;46.88;99138.53;4807052;29;104012;-82
2021/11/12 09:39:01;;;;;;;;;19.50;16.25;;;;;15.46;46.91;99143.97;4796783;29;104682;-82
2021/11/12 09:41:28;;;;;;;;;19.25;16.75;;;;;15.46;46.86;99143.13;4827179;28;103467;-82
2021/11/12 09:43:56;;;;;;;;;19.75;16.25;;;;;15.44;47.03;99146.09;4801286;29;102568;-88
2021/11/12 09:46:25;;;;;;;;;19.50;16.50;;;;;15.45;46.83;99130.56;4804103;29;102746;-81
2021/11/12 09:48:52;;;;;;;;;19.50;17.00;;;;;15.47;46.89;99142.94;4805315;29;103774;-88
2021/11/12 09:51:19;;;;;;;;;21.75;17.00;;;;;15.47;46.74;99129.31;4804834;29;102248;-88
2021/11/12 09:53:49;;;;;;;;;22.75;19.25;;;;;15.48;46.89;99127.41;4815935;28;102317;-89
2021/11/12 09:56:16;;;;;;;;;19.25;18.00;;;;;15.48;46.47;99121.97;4819807;29;102826;-89
2021/11/12 09:58:50;;;;;;;;;20.25;14.50;;;;;15.49;46.92;99118.19;4829212;28;104250;-89
2021/11/12 10:01:25;;;;;;;;;15.50;14.75;;;;;15.48;47.04;99111.91;4799247;29;102558;-89
2021/11/12 10:03:52;;;;;;;;;19.25;17.00;;;;;15.48;46.73;99113.78;4800034;28;102189;-84
2021/11/12 10:06:21;;;;;;;;;16.00;15.25;;;;;15.48;47.56;99102.88;4829028;29;102211;-89
2021/11/12 10:08:48;;;;;;;;;13.25;12.50;;;;;15.48;46.45;99109.16;4810885;29;109123;-82
2021/11/12 10:11:29;;;;;;;;;16.75;13.50;;;;;15.47;46.98;99102.03;4824166;28;102439;-89
2021/11/12 10:14:12;;;;;;;;;18.25;15.25;;;;;15.48;46.98;99108.34;4820996;29;102706;-81
2021/11/12 10:16:42;;;;;;;;;14.75;13.75;;;;;15.47;46.72;99106.66;4796625;29;102561;-82
2021/11/12 10:19:15;;;;;;;;;17.75;14.50;;;;;15.46;46.62;99105.81;4820278;28;104221;-89
2021/11/12 10:21:53;;;;;;;;;17.25;14.00;;;;;15.43;46.61;99089.91;4807873;29;102630;-89
2021/11/12 10:24:25;;;;;;;;;15.00;14.75;;;;;15.43;46.51;99092.66;4811318;29;102614;-88
2021/11/12 10:26:57;;;;;;;;;16.75;14.50;;;;;15.44;47.05;99098.94;4808186;29;102679;-86
2021/11/12 10:29:29;;;;;;;;;17.25;14.00;;;;;15.44;46.77;99085.31;4801035;29;104071;-88
2021/11/12 10:32:01;;;;;;;;;21.00;16.00;;;;;15.43;47.04;99089.06;4800362;29;102979;-81
2021/11/12 10:34:30;;;;;;;;;14.50;14.25;;;;;15.43;46.67;99091.81;4803991;29;102543;-81
2021/11/12 10:37:01;;;;;;;;;15.75;13.50;;;;;15.43;46.35;99094.53;4807529;29;103513;-88
2021/11/12 10:39:36;;;;;;;;;16.00;14.25;;;;;15.41;46.72;99088.44;4827526;29;104050;-88
2021/11/12 10:42:09;;;;;;;;;18.00;14.50;;;;;15.43;47.42;99084.47;4823852;28;102250;-89
2021/11/12 10:44:44;;;;;;;;;18.25;16.00;;;;;15.43;46.85;99084.47;4790480;29;102621;-89
2021/11/12 10:47:11;;;;;;;;;17.00;15.75;;;;;15.42;46.74;99074.63;4826111;29;102328;-89
2021/11/12 10:49:41;;;;;;;;;16.00;15.00;;;;;15.44;46.98;99082.56;4823461;29;103787;-89
2021/11/12 10:52:12;;;;;;;;;15.25;14.00;;;;;15.43;46.69;99072.72;4805850;29;102435;-89
2021/11/12 10:54:52;;;;;;;;;15.25;13.75;;;;;15.43;46.82;99072.72;4807428;28;102777;-81
2021/11/12 10:57:29;;;;;;;;;17.75;14.75;;;;;15.41;46.95;99063.94;4814985;29;102464;-89
2021/11/12 10:59:58;;;;;;;;;15.50;13.00;;;;;15.42;46.74;99060.16;4819328;29;108743;-89
2021/11/12 11:02:26;;;;;;;;;18.25;14.75;;;;;15.42;46.78;99065.59;4803561;29;102540;-89
2021/11/12 11:04:59;;;;;;;;;16.25;12.50;;;;;15.43;46.68;99056.38;4791545;29;109676;-89
2021/11/12 11:07:26;;;;;;;;;16.25;13.75;;;;;15.43;46.88;99057.22;4776646;29;103260;-88
2021/11/12 11:10:04;;;;;;;;;17.00;15.25;;;;;15.45;46.77;99056.97;4820997;28;103992;-88
2021/11/12 11:12:40;;;;;;;;;13.75;11.50;;;;;15.46;46.66;99051.31;4803187;29;103988;-88
2021/11/12 11:15:11;;;;;;;;;16.00;14.00;;;;;15.45;46.74;99049.63;4813710;28;110420;-81
2021/11/12 11:17:46;;;;;;;;;16.00;14.75;;;;;15.47;47.01;99052.16;4818454;28;102158;-89
2021/11/12 11:20:21;;;;;;;;;15.50;12.50;;;;;15.46;46.82;99047.75;4801548;29;104122;-88
2021/11/12 11:22:55;;;;;;;;;9.50;9.50;;;;;15.45;46.74;99048.81;4818087;29;102629;-89
2021/11/12 11:25:26;;;;;;;;;17.50;15.75;;;;;15.45;46.95;99049.63;4823014;28;102481;-89
2021/11/12 11:27:55;;;;;;;;;14.50;12.00;;;;;15.41;46.96;99048.41;4790433;29;102623;-87
2021/11/12 11:30:22;;;;;;;;;15.00;11.25;;;;;15.43;46.71;99043.59;4800596;29;105598;-89
2021/11/12 11:32:49;;;;;;;;;14.75;12.00;;;;;15.43;46.66;99050.94;4822167;28;102452;-89
2021/11/12 11:35:17;;;;;;;;;16.00;14.75;;;;;15.42;46.83;99038.34;4770912;29;102630;-88
2021/11/12 11:37:44;;;;;;;;;15.00;13.00;;;;;15.40;46.88;99038.56;4803699;29;102165;-89
2021/11/12 11:40:13;;;;;;;;;13.25;10.75;;;;;15.40;47.06;99041.28;4805464;29;104857;-89
2021/11/12 11:42:41;;;;;;;;;17.50;14.25;;;;;15.41;46.60;99034.78;4802134;29;103294;-88
2021/11/12 11:45:15;;;;;;;;;14.00;12.50;;;;;15.42;46.86;99033.75;4824799;29;102411;-88
2021/11/12 11:47:43;;;;;;;;;13.00;13.00;;;;;15.43;46.55;99040.03;4823572;29;102170;-89
2021/11/12 11:50:24;;;;;;;;;16.75;14.75;;;;;15.44;46.39;99031.63;4806734;29;104134;-89
2021/11/12 11:52:51;;;;;;;;;14.75;13.50;;;;;15.44;46.74;99026.19;4818944;29;102231;-89
2021/11/12 11:55:35;;;;;;;;;17.00;14.25;;;;;15.45;46.67;99016.94;4824629;29;103049;-89
2021/11/12 11:58:41;;;;;;;;;14.50;11.75;;;;;15.45;46.75;99024.28;4818783;28;104456;-89
2021/11/12 12:01:27;;;;;;;;;12.00;11.00;;;;;15.45;46.52;99013.38;4820029;28;108875;-82
2021/11/12 12:04:09;;;;;;;;;13.25;13.25;;;;;15.44;46.71;99019.91;4798491;29;102302;-88
2021/11/12 12:06:40;;;;;;;;;14.25;14.25;;;;;15.43;46.93;99012.78;4809956;29;102711;-82
2021/11/12 12:09:11;;;;;;;;;12.00;11.50;;;;;15.42;46.73;99005.66;4819921;28;102717;-89
2021/11/12 12:11:50;;;;;;;;;14.75;13.25;;;;;15.41;46.85;99004.81;4819525;28;103913;-89
2021/11/12 12:14:29;;;;;;;;;11.25;11.25;;;;;15.41;47.03;98999.34;4818720;29;103458;-89
2021/11/12 12:16:59;;;;;;;;;17.25;13.50;;;;;15.42;46.67;98992.03;4809291;29;102499;-83
2021/11/12 12:19:59;;;;;;;;;14.25;12.25;;;;;15.41;47.06;98993.06;4821800;28;102588;-82
2021/11/12 12:32:18;;;;;;;;;10.00;8.75;;;;;15.43;46.80;98990.97;4826029;28;104420;-88
2021/11/12 13:20:23;;;;;;;;;11.25;8.50;;;;;15.36;46.52;98952.03;4792371;29;108196;-89
2021/11/12 13:25:52;;;;;;;;;10.50;9.50;;;;;15.36;46.73;98952.03;4810418;29;102385;-88
2021/11/12 13:28:35;;;;;;;;;11.75;11.00;;;;;15.36;46.70;98943.84;4809056;29;102246;-82
2021/11/12 13:31:29;;;;;;;;;10.75;9.50;;;;;15.34;46.17;98956.88;4810312;29;109045;-82
2021/11/12 13:33:57;;;;;;;;;11.50;10.00;;;;;15.33;46.76;98958.78;4816248;29;102160;-89
2021/11/12 13:36:35;;;;;;;;;12.75;10.75;;;;;15.34;46.88;98957.72;4800420;29;102758;-82
2021/11/12 13:39:07;;;;;;;;;10.00;9.75;;;;;15.34;47.01;98952.28;4808988;29;103683;-89
2021/11/12 13:41:36;;;;;;;;;14.50;10.25;;;;;15.32;46.87;98951.66;4823824;29;104676;-89
2021/11/12 13:44:10;;;;;;;;;8.75;7.25;;;;;15.34;46.87;98959.63;4799422;29;102591;-89
2021/11/12 13:46:48;;;;;;;;;14.00;10.00;;;;;15.33;46.84;98952.47;4789782;29;103571;-89
2021/11/12 13:49:40;;;;;;;;;11.75;10.50;;;;;15.34;46.95;98959.63;4789757;29;103834;-89
2021/11/12 13:52:14;;;;;;;;;13.50;11.25;;;;;15.33;46.78;98963.38;4805296;29;108655;-89
2021/11/12 13:54:42;;;;;;;;;9.50;8.75;;;;;15.32;46.50;98946.19;4824143;28;102991;-82
2021/11/12 13:57:17;;;;;;;;;10.00;9.50;;;;;15.32;46.40;98950.81;4804630;29;102990;-89
2021/11/12 14:00:00;;;;;;;;;10.75;9.75;;;;;15.32;46.84;98939.91;4821854;29;102283;-89
2021/11/12 14:02:29;;;;;;;;;12.50;10.75;;;;;15.28;46.49;98925.06;4820886;29;109227;-88
2021/11/12 14:05:12;;;;;;;;;13.00;9.00;;;;;15.33;46.92;98927.97;4801183;29;102546;-82
2021/11/12 14:07:39;;;;;;;;;10.75;9.25;;;;;15.33;46.56;98930.69;4798593;29;102659;-89
2021/11/12 14:10:09;;;;;;;;;13.50;9.25;;;;;15.34;46.88;98932.38;4821007;29;102288;-89
2021/11/12 14:12:49;;;;;;;;;10.75;9.50;;;;;15.33;46.50;98933.41;4802486;29;103778;-81
2021/11/12 14:15:19;;;;;;;;;10.25;9.00;;;;;15.35;46.33;98934.03;4793358;29;102365;-89
2021/11/12 14:21:10;;;;;;;;;8.25;7.00;;;;;15.33;46.63;98933.41;4825648;29;102809;-82
2021/11/12 14:23:51;;;;;;;;;13.25;10.50;;;;;15.33;46.94;98930.69;4802967;29;108732;-89
2021/11/12 14:26:34;;;;;;;;;11.00;8.75;;;;;15.33;46.92;98930.69;4813499;28;102481;-89
2021/11/12 14:30:33;;;;;;;;;13.50;11.50;;;;;15.33;46.49;98938.88;4799537;29;102974;-89
2021/11/12 14:46:34;;;;;;;;;11.00;9.25;;;;;15.27;46.82;98932.41;4813429;29;109181;-88
2021/11/12 14:49:18;;;;;;;;;10.25;9.75;;;;;15.28;46.73;98927.78;4822020;29;102570;-82
2021/11/12 14:52:07;;;;;;;;;8.50;7.25;;;;;15.27;46.71;98931.56;4802852;29;102229;-82
2021/11/12 14:54:53;;;;;;;;;11.50;9.25;;;;;15.28;46.69;98919.63;4810081;29;102747;-89
2021/11/12 14:57:30;;;;;;;;;10.25;8.00;;;;;15.29;46.71;98929.47;4816166;29;104259;-82
2021/11/12 15:00:04;;;;;;;;;9.50;8.75;;;;;15.29;46.95;98926.75;4814489;28;103028;-82
2021/11/12 15:02:31;;;;;;;;;7.75;7.50;;;;;15.26;46.36;98919.88;4807360;29;102588;-82
2021/11/12 15:04:59;;;;;;;;;8.25;7.00;;;;;15.28;46.81;98915.00;4805213;28;102559;-89
2021/11/12 15:07:29;;;;;;;;;8.50;8.00;;;;;15.28;46.49;98917.75;4825873;29;103989;-84
2021/11/12 15:09:58;;;;;;;;;9.75;8.75;;;;;15.29;46.58;98907.69;4821034;29;102959;-89
2021/11/12 15:12:26;;;;;;;;;8.75;8.00;;;;;15.28;46.78;98906.00;4804763;29;102648;-87
2021/11/12 15:14:56;;;;;;;;;9.00;8.00;;;;;15.27;46.80;98904.31;4820239;28;102584;-89
2021/11/12 15:17:24;;;;;;;;;10.00;8.75;;;;;15.27;47.16;98910.63;4822469;29;109033;-89
2021/11/12 15:19:51;;;;;;;;;13.75;10.00;;;;;15.26;46.73;98905.41;4807543;29;102340;-88
2021/11/12 15:22:49;;;;;;;;;9.75;6.50;;;;;15.23;47.12;98898.50;4824922;29;103980;-82
2021/11/12 15:25:40;;;;;;;;;8.75;8.50;;;;;15.21;46.99;98902.50;4824510;29;104514;-89
2021/11/12 15:30:40;;;;;;;;;11.00;7.75;;;;;15.17;46.82;98900.22;4824502;28;102671;-89
2021/11/12 15:33:13;;;;;;;;;7.25;6.50;;;;;15.18;46.69;98899.16;4822305;29;102474;-89
2021/11/12 15:35:41;;;;;;;;;7.00;7.00;;;;;15.15;46.87;98896.91;4814424;29;103640;-89
2021/11/12 15:38:22;;;;;;;;;9.75;8.50;;;;;15.16;47.01;98897.75;4807970;28;104080;-88
2021/11/12 15:40:57;;;;;;;;;8.50;8.50;;;;;15.16;46.92;98903.19;4808403;29;102344;-89
2021/11/12 15:43:28;;;;;;;;;8.50;7.75;;;;;15.19;46.65;98914.47;4803044;29;102624;-82
2021/11/12 15:46:09;;;;;;;;;9.50;8.25;;;;;15.19;47.21;98908.19;4803100;29;102664;-89
2021/11/12 15:48:40;;;;;;;;;6.50;5.00;;;;;15.21;47.33;98910.69;4819823;29;108888;-89
2021/11/12 15:54:46;;;;;;;;;9.50;9.50;;;;;15.22;46.87;98910.44;4803109;29;103083;-82
2021/11/12 16:13:28;;;;;;;;;13.75;8.50;;;;;15.28;46.69;98916.91;4779388;29;102278;-82
2021/11/12 16:21:22;;;;;;;;;13.00;9.25;;;;;15.29;46.83;98924.84;4820026;29;108982;-89
2021/11/12 16:26:20;;;;;;;;;9.50;8.25;;;;;15.30;46.52;98912.91;4817973;28;103239;-89
2021/11/12 16:31:25;;;;;;;;;7.50;7.50;;;;;15.30;46.96;98902.00;4821115;29;108846;-89
2021/11/12 16:33:53;;;;;;;;;10.00;8.75;;;;;15.31;46.62;98900.13;4799363;29;102501;-81
2021/11/12 16:36:20;;;;;;;;;9.75;9.25;;;;;15.30;47.03;98898.44;4819711;29;102606;-82